Puvirnituq Airport
CYPX : now visible

Airfield :











YOU CAN JOIN US ON...

 
LOGIN :

Register | Disclaimer

   EN    FR    IT 

 









Legend :    VFR   Marginal VFR   IFR   Intensive IFR   Very Intensive IFR
Visi :
Ceiling :
>= 8 km
>= 3000ft
5 to 8 km
1000 to 3000 ft
1500m to 5 km
500 to 1000 ft
800 to 1500m
200 to 500 ft
< 800m
< 200 ft
Symbols :   Thunderstorms  Fog  Heavy snow  Heavy precipitations  Wind > 20 kt







- Airport Elevation : 74 ft
- IATA code : YPX


CYPX - Puvirnituq

CURRENT METAR :
  • 202300Z AUTO 30018G23KT 9SM FEW240 11/06 A2995 RMK SLP143

EXPIRED METARs :
  • 202200Z AUTO 31020KT 9SM FEW240 13/07 A2994 RMK SLP141
  • 202100Z AUTO 30020KT 9SM FEW250 13/07 A2993 RMK SLP139

TAF TAF CYPX
Valid from the 20 at 18:00 until the 21 at 06:00 UTC


201738Z 2018/2106 30015KT P6SM BKN100
TEMPO 2018/2106 BKN070
BECMG 2102/2104 30010KT RMK FCST BASED ON AUTO OBS. NXT FCST BY 210000Z
CZUL FIR / North America



MET'MAP, your aeronautical weather chart ! - Copyright ORBIFLY December 2007 - Disclaimer

ORBIFLY MET'MAP TEAM :

Programming & Development : Alexandra Zaïnal
Concept & Development : Baudouin d'Aumeries
Co-Development & Prog : Marc-Olivier Méhu
Technical & hardware support : Manuel Goepfert

Contact : metmap@orbifly.com




SOURCES & CREDITS :

   NOAA       Earth
Advisory